sensor_id;sensor_type;location;lat;lon;timestamp;P1;durP1;ratioP1;P2;durP2;ratioP2
14907;SDS011;7545;52.092;7.006;2022-07-23T00:02:21;7.05;;;3.47;;
14907;SDS011;7545;52.092;7.006;2022-07-23T00:04:47;3.65;;;3.15;;
14907;SDS011;7545;52.092;7.006;2022-07-23T00:07:12;5.28;;;3.55;;
14907;SDS011;7545;52.092;7.006;2022-07-23T00:09:39;3.55;;;3.22;;
14907;SDS011;7545;52.092;7.006;2022-07-23T00:12:04;4.15;;;2.72;;
14907;SDS011;7545;52.092;7.006;2022-07-23T00:14:30;4.10;;;3.03;;
14907;SDS011;7545;52.092;7.006;2022-07-23T00:16:56;3.88;;;3.47;;
14907;SDS011;7545;52.092;7.006;2022-07-23T00:19:21;3.70;;;3.00;;
14907;SDS011;7545;52.092;7.006;2022-07-23T00:21:47;3.50;;;3.20;;
14907;SDS011;7545;52.092;7.006;2022-07-23T00:24:13;4.65;;;3.00;;
14907;SDS011;7545;52.092;7.006;2022-07-23T00:26:38;6.20;;;3.55;;
14907;SDS011;7545;52.092;7.006;2022-07-23T00:29:04;4.47;;;2.83;;
14907;SDS011;7545;52.092;7.006;2022-07-23T00:31:30;5.00;;;3.03;;
14907;SDS011;7545;52.092;7.006;2022-07-23T00:33:55;4.60;;;3.63;;
14907;SDS011;7545;52.092;7.006;2022-07-23T00:36:22;5.20;;;3.88;;
14907;SDS011;7545;52.092;7.006;2022-07-23T00:38:48;3.15;;;2.63;;
14907;SDS011;7545;52.092;7.006;2022-07-23T00:41:14;3.30;;;3.00;;
14907;SDS011;7545;52.092;7.006;2022-07-23T00:43:40;4.28;;;3.22;;
14907;SDS011;7545;52.092;7.006;2022-07-23T00:46:06;5.57;;;4.07;;
14907;SDS011;7545;52.092;7.006;2022-07-23T00:48:32;3.00;;;2.70;;
14907;SDS011;7545;52.092;7.006;2022-07-23T00:50:57;4.60;;;3.35;;
14907;SDS011;7545;52.092;7.006;2022-07-23T00:53:23;4.53;;;3.17;;
14907;SDS011;7545;52.092;7.006;2022-07-23T00:55:49;3.83;;;3.50;;
14907;SDS011;7545;52.092;7.006;2022-07-23T00:58:15;4.63;;;2.67;;
14907;SDS011;7545;52.092;7.006;2022-07-23T01:00:41;4.47;;;3.25;;
14907;SDS011;7545;52.092;7.006;2022-07-23T01:03:07;5.40;;;3.60;;
14907;SDS011;7545;52.092;7.006;2022-07-23T01:05:33;5.38;;;3.72;;
14907;SDS011;7545;52.092;7.006;2022-07-23T01:07:59;3.72;;;3.25;;
14907;SDS011;7545;52.092;7.006;2022-07-23T01:10:25;5.25;;;3.28;;
14907;SDS011;7545;52.092;7.006;2022-07-23T01:13:06;7.15;;;3.58;;
14907;SDS011;7545;52.092;7.006;2022-07-23T01:15:33;4.68;;;3.10;;
14907;SDS011;7545;52.092;7.006;2022-07-23T01:18:00;4.65;;;3.15;;
14907;SDS011;7545;52.092;7.006;2022-07-23T01:20:26;3.45;;;3.15;;
14907;SDS011;7545;52.092;7.006;2022-07-23T01:22:53;3.65;;;3.28;;
14907;SDS011;7545;52.092;7.006;2022-07-23T01:25:19;5.10;;;3.17;;
14907;SDS011;7545;52.092;7.006;2022-07-23T01:27:45;4.20;;;3.03;;
14907;SDS011;7545;52.092;7.006;2022-07-23T01:30:10;5.38;;;3.03;;
14907;SDS011;7545;52.092;7.006;2022-07-23T01:32:37;3.75;;;2.92;;
14907;SDS011;7545;52.092;7.006;2022-07-23T01:35:03;3.72;;;2.63;;
14907;SDS011;7545;52.092;7.006;2022-07-23T01:37:30;3.75;;;3.00;;
14907;SDS011;7545;52.092;7.006;2022-07-23T01:39:55;3.65;;;2.95;;
14907;SDS011;7545;52.092;7.006;2022-07-23T01:42:21;4.25;;;3.42;;
14907;SDS011;7545;52.092;7.006;2022-07-23T01:44:46;4.00;;;3.13;;
14907;SDS011;7545;52.092;7.006;2022-07-23T01:47:12;3.53;;;3.20;;
14907;SDS011;7545;52.092;7.006;2022-07-23T01:49:38;3.80;;;3.17;;
14907;SDS011;7545;52.092;7.006;2022-07-23T01:52:03;6.05;;;3.50;;
14907;SDS011;7545;52.092;7.006;2022-07-23T01:54:34;3.22;;;2.92;;
14907;SDS011;7545;52.092;7.006;2022-07-23T01:57:00;4.32;;;3.13;;
14907;SDS011;7545;52.092;7.006;2022-07-23T01:59:26;3.72;;;3.15;;
14907;SDS011;7545;52.092;7.006;2022-07-23T02:01:53;5.15;;;3.17;;
14907;SDS011;7545;52.092;7.006;2022-07-23T02:04:20;7.18;;;3.05;;
14907;SDS011;7545;52.092;7.006;2022-07-23T02:06:47;3.53;;;2.38;;
14907;SDS011;7545;52.092;7.006;2022-07-23T02:09:13;3.10;;;2.80;;
14907;SDS011;7545;52.092;7.006;2022-07-23T02:11:38;4.07;;;3.10;;
14907;SDS011;7545;52.092;7.006;2022-07-23T02:14:04;3.50;;;2.92;;
14907;SDS011;7545;52.092;7.006;2022-07-23T02:16:30;4.85;;;3.45;;
14907;SDS011;7545;52.092;7.006;2022-07-23T02:18:55;4.60;;;3.20;;
14907;SDS011;7545;52.092;7.006;2022-07-23T02:21:22;3.13;;;2.55;;
14907;SDS011;7545;52.092;7.006;2022-07-23T02:23:47;4.25;;;3.38;;
14907;SDS011;7545;52.092;7.006;2022-07-23T02:26:13;3.65;;;3.22;;
14907;SDS011;7545;52.092;7.006;2022-07-23T02:28:39;3.83;;;2.83;;
14907;SDS011;7545;52.092;7.006;2022-07-23T02:31:04;7.60;;;3.60;;
14907;SDS011;7545;52.092;7.006;2022-07-23T02:33:31;4.28;;;3.50;;
14907;SDS011;7545;52.092;7.006;2022-07-23T02:35:57;4.57;;;3.47;;
14907;SDS011;7545;52.092;7.006;2022-07-23T02:38:23;4.78;;;3.80;;
14907;SDS011;7545;52.092;7.006;2022-07-23T02:40:49;4.72;;;3.13;;
14907;SDS011;7545;52.092;7.006;2022-07-23T02:43:15;3.60;;;2.92;;
14907;SDS011;7545;52.092;7.006;2022-07-23T02:45:40;5.30;;;3.50;;
14907;SDS011;7545;52.092;7.006;2022-07-23T02:48:06;5.07;;;3.00;;
14907;SDS011;7545;52.092;7.006;2022-07-23T02:50:31;3.50;;;3.10;;
14907;SDS011;7545;52.092;7.006;2022-07-23T02:52:57;4.93;;;3.17;;
14907;SDS011;7545;52.092;7.006;2022-07-23T02:55:23;3.55;;;3.05;;
14907;SDS011;7545;52.092;7.006;2022-07-23T02:57:49;3.25;;;2.95;;
14907;SDS011;7545;52.092;7.006;2022-07-23T03:00:14;3.78;;;3.00;;
14907;SDS011;7545;52.092;7.006;2022-07-23T03:02:40;4.05;;;3.10;;
14907;SDS011;7545;52.092;7.006;2022-07-23T03:05:06;5.15;;;3.00;;
14907;SDS011;7545;52.092;7.006;2022-07-23T03:07:32;3.40;;;3.10;;
14907;SDS011;7545;52.092;7.006;2022-07-23T03:09:57;5.40;;;3.35;;
14907;SDS011;7545;52.092;7.006;2022-07-23T03:12:23;3.65;;;3.28;;
14907;SDS011;7545;52.092;7.006;2022-07-23T03:14:49;3.83;;;3.08;;
14907;SDS011;7545;52.092;7.006;2022-07-23T03:17:14;4.22;;;2.70;;
14907;SDS011;7545;52.092;7.006;2022-07-23T03:19:40;5.03;;;2.92;;
14907;SDS011;7545;52.092;7.006;2022-07-23T03:22:05;3.45;;;3.15;;
14907;SDS011;7545;52.092;7.006;2022-07-23T03:24:31;6.22;;;3.40;;
14907;SDS011;7545;52.092;7.006;2022-07-23T03:27:15;3.85;;;3.50;;
14907;SDS011;7545;52.092;7.006;2022-07-23T03:29:41;4.90;;;3.25;;
14907;SDS011;7545;52.092;7.006;2022-07-23T03:32:06;4.07;;;3.05;;
14907;SDS011;7545;52.092;7.006;2022-07-23T03:34:32;4.20;;;3.28;;
14907;SDS011;7545;52.092;7.006;2022-07-23T03:36:58;3.17;;;2.88;;
14907;SDS011;7545;52.092;7.006;2022-07-23T03:39:23;4.45;;;2.92;;
14907;SDS011;7545;52.092;7.006;2022-07-23T03:41:49;4.43;;;2.97;;
14907;SDS011;7545;52.092;7.006;2022-07-23T03:44:15;4.75;;;2.83;;
14907;SDS011;7545;52.092;7.006;2022-07-23T03:46:40;5.88;;;3.40;;
14907;SDS011;7545;52.092;7.006;2022-07-23T03:49:06;10.32;;;3.60;;
14907;SDS011;7545;52.092;7.006;2022-07-23T03:51:31;3.75;;;3.15;;
14907;SDS011;7545;52.092;7.006;2022-07-23T03:53:57;3.53;;;2.92;;
14907;SDS011;7545;52.092;7.006;2022-07-23T03:56:23;4.05;;;3.05;;
14907;SDS011;7545;52.092;7.006;2022-07-23T03:58:48;3.20;;;2.90;;
14907;SDS011;7545;52.092;7.006;2022-07-23T04:01:14;4.38;;;3.13;;
14907;SDS011;7545;52.092;7.006;2022-07-23T04:03:40;4.53;;;3.13;;
14907;SDS011;7545;52.092;7.006;2022-07-23T04:06:06;3.90;;;3.38;;
14907;SDS011;7545;52.092;7.006;2022-07-23T04:08:32;4.10;;;3.70;;
14907;SDS011;7545;52.092;7.006;2022-07-23T04:10:57;4.75;;;3.63;;
14907;SDS011;7545;52.092;7.006;2022-07-23T04:13:23;3.83;;;3.42;;
14907;SDS011;7545;52.092;7.006;2022-07-23T04:15:49;6.38;;;3.15;;
14907;SDS011;7545;52.092;7.006;2022-07-23T04:18:16;4.28;;;3.15;;
14907;SDS011;7545;52.092;7.006;2022-07-23T04:20:42;4.57;;;3.30;;
14907;SDS011;7545;52.092;7.006;2022-07-23T04:23:08;4.43;;;3.42;;
14907;SDS011;7545;52.092;7.006;2022-07-23T04:25:34;5.55;;;3.08;;
14907;SDS011;7545;52.092;7.006;2022-07-23T04:28:00;3.25;;;2.95;;
14907;SDS011;7545;52.092;7.006;2022-07-23T04:30:26;4.10;;;3.63;;
14907;SDS011;7545;52.092;7.006;2022-07-23T04:32:51;5.65;;;3.30;;
14907;SDS011;7545;52.092;7.006;2022-07-23T04:35:17;5.63;;;3.85;;
14907;SDS011;7545;52.092;7.006;2022-07-23T04:37:43;3.40;;;2.90;;
14907;SDS011;7545;52.092;7.006;2022-07-23T04:40:08;5.72;;;3.20;;
14907;SDS011;7545;52.092;7.006;2022-07-23T04:42:35;3.85;;;3.45;;
14907;SDS011;7545;52.092;7.006;2022-07-23T04:45:00;4.80;;;3.28;;
14907;SDS011;7545;52.092;7.006;2022-07-23T04:47:26;3.50;;;3.20;;
14907;SDS011;7545;52.092;7.006;2022-07-23T04:49:52;3.95;;;3.28;;
14907;SDS011;7545;52.092;7.006;2022-07-23T04:52:17;4.05;;;3.10;;
14907;SDS011;7545;52.092;7.006;2022-07-23T04:54:43;3.72;;;3.40;;
14907;SDS011;7545;52.092;7.006;2022-07-23T04:57:09;4.20;;;3.40;;
14907;SDS011;7545;52.092;7.006;2022-07-23T04:59:34;4.00;;;3.55;;
14907;SDS011;7545;52.092;7.006;2022-07-23T05:02:00;3.70;;;3.38;;
14907;SDS011;7545;52.092;7.006;2022-07-23T05:04:25;4.28;;;3.55;;
14907;SDS011;7545;52.092;7.006;2022-07-23T05:06:51;3.58;;;3.28;;
14907;SDS011;7545;52.092;7.006;2022-07-23T05:09:17;4.43;;;4.00;;
14907;SDS011;7545;52.092;7.006;2022-07-23T05:11:42;5.75;;;5.15;;
14907;SDS011;7545;52.092;7.006;2022-07-23T05:14:08;4.40;;;4.00;;
14907;SDS011;7545;52.092;7.006;2022-07-23T05:16:33;5.07;;;4.28;;
14907;SDS011;7545;52.092;7.006;2022-07-23T05:18:59;4.43;;;4.03;;
14907;SDS011;7545;52.092;7.006;2022-07-23T05:21:25;5.07;;;3.95;;
14907;SDS011;7545;52.092;7.006;2022-07-23T05:23:50;4.60;;;4.20;;
14907;SDS011;7545;52.092;7.006;2022-07-23T05:26:16;7.75;;;4.18;;
14907;SDS011;7545;52.092;7.006;2022-07-23T05:28:41;4.25;;;3.85;;
14907;SDS011;7545;52.092;7.006;2022-07-23T05:31:07;4.45;;;3.92;;
14907;SDS011;7545;52.092;7.006;2022-07-23T05:33:33;7.55;;;4.45;;
14907;SDS011;7545;52.092;7.006;2022-07-23T05:36:02;5.00;;;4.20;;
14907;SDS011;7545;52.092;7.006;2022-07-23T05:38:28;4.82;;;4.22;;
14907;SDS011;7545;52.092;7.006;2022-07-23T05:40:54;7.00;;;4.57;;
14907;SDS011;7545;52.092;7.006;2022-07-23T05:43:20;6.05;;;4.40;;
14907;SDS011;7545;52.092;7.006;2022-07-23T05:45:46;5.45;;;4.63;;
14907;SDS011;7545;52.092;7.006;2022-07-23T05:48:12;5.18;;;4.30;;
14907;SDS011;7545;52.092;7.006;2022-07-23T05:50:37;5.53;;;4.97;;
14907;SDS011;7545;52.092;7.006;2022-07-23T05:53:03;9.30;;;5.28;;
14907;SDS011;7545;52.092;7.006;2022-07-23T05:55:29;6.18;;;4.10;;
14907;SDS011;7545;52.092;7.006;2022-07-23T05:57:56;6.07;;;4.57;;
14907;SDS011;7545;52.092;7.006;2022-07-23T06:00:23;4.93;;;4.43;;
14907;SDS011;7545;52.092;7.006;2022-07-23T06:02:49;4.80;;;4.15;;
14907;SDS011;7545;52.092;7.006;2022-07-23T06:05:15;5.45;;;3.63;;
14907;SDS011;7545;52.092;7.006;2022-07-23T06:07:40;6.10;;;3.95;;
14907;SDS011;7545;52.092;7.006;2022-07-23T06:10:06;7.40;;;5.03;;
14907;SDS011;7545;52.092;7.006;2022-07-23T06:12:32;6.05;;;4.18;;
14907;SDS011;7545;52.092;7.006;2022-07-23T06:14:58;7.38;;;3.70;;
14907;SDS011;7545;52.092;7.006;2022-07-23T06:17:24;5.43;;;4.07;;
14907;SDS011;7545;52.092;7.006;2022-07-23T06:19:50;4.75;;;3.40;;
14907;SDS011;7545;52.092;7.006;2022-07-23T06:22:16;3.50;;;3.20;;
14907;SDS011;7545;52.092;7.006;2022-07-23T06:24:41;3.67;;;3.38;;
14907;SDS011;7545;52.092;7.006;2022-07-23T06:27:07;5.65;;;3.33;;
14907;SDS011;7545;52.092;7.006;2022-07-23T06:29:33;5.13;;;3.05;;
14907;SDS011;7545;52.092;7.006;2022-07-23T06:31:58;3.65;;;3.08;;
14907;SDS011;7545;52.092;7.006;2022-07-23T06:34:24;3.88;;;2.58;;
14907;SDS011;7545;52.092;7.006;2022-07-23T06:36:49;3.88;;;2.72;;
14907;SDS011;7545;52.092;7.006;2022-07-23T06:39:15;4.75;;;3.22;;
14907;SDS011;7545;52.092;7.006;2022-07-23T06:41:41;3.53;;;2.90;;
14907;SDS011;7545;52.092;7.006;2022-07-23T06:44:07;3.70;;;2.42;;
14907;SDS011;7545;52.092;7.006;2022-07-23T06:46:32;4.10;;;2.72;;
14907;SDS011;7545;52.092;7.006;2022-07-23T06:48:58;7.03;;;3.47;;
14907;SDS011;7545;52.092;7.006;2022-07-23T06:51:24;3.95;;;2.45;;
14907;SDS011;7545;52.092;7.006;2022-07-23T06:53:49;2.63;;;2.38;;
14907;SDS011;7545;52.092;7.006;2022-07-23T06:56:15;4.55;;;2.10;;
14907;SDS011;7545;52.092;7.006;2022-07-23T06:58:41;4.60;;;2.22;;
14907;SDS011;7545;52.092;7.006;2022-07-23T07:01:06;3.33;;;2.38;;
14907;SDS011;7545;52.092;7.006;2022-07-23T07:03:32;2.85;;;2.42;;
14907;SDS011;7545;52.092;7.006;2022-07-23T07:05:58;3.03;;;2.38;;
14907;SDS011;7545;52.092;7.006;2022-07-23T07:08:24;5.53;;;2.65;;
14907;SDS011;7545;52.092;7.006;2022-07-23T07:10:49;4.10;;;3.03;;
14907;SDS011;7545;52.092;7.006;2022-07-23T07:13:15;5.80;;;2.30;;
14907;SDS011;7545;52.092;7.006;2022-07-23T07:15:41;3.33;;;2.53;;
14907;SDS011;7545;52.092;7.006;2022-07-23T07:18:07;5.78;;;2.83;;
14907;SDS011;7545;52.092;7.006;2022-07-23T07:20:32;4.40;;;2.30;;
14907;SDS011;7545;52.092;7.006;2022-07-23T07:22:58;3.85;;;2.45;;
14907;SDS011;7545;52.092;7.006;2022-07-23T07:25:24;1.85;;;1.60;;
14907;SDS011;7545;52.092;7.006;2022-07-23T07:27:49;2.38;;;1.70;;
14907;SDS011;7545;52.092;7.006;2022-07-23T07:30:15;3.10;;;1.40;;
14907;SDS011;7545;52.092;7.006;2022-07-23T07:32:41;3.25;;;1.52;;
14907;SDS011;7545;52.092;7.006;2022-07-23T07:35:08;3.15;;;1.75;;
14907;SDS011;7545;52.092;7.006;2022-07-23T07:37:34;3.75;;;1.88;;
14907;SDS011;7545;52.092;7.006;2022-07-23T07:39:59;2.63;;;2.00;;
14907;SDS011;7545;52.092;7.006;2022-07-23T07:42:25;2.10;;;1.90;;
14907;SDS011;7545;52.092;7.006;2022-07-23T07:44:51;2.25;;;2.05;;
14907;SDS011;7545;52.092;7.006;2022-07-23T07:47:17;4.32;;;2.15;;
14907;SDS011;7545;52.092;7.006;2022-07-23T07:49:42;3.85;;;1.65;;
14907;SDS011;7545;52.092;7.006;2022-07-23T07:52:09;5.20;;;1.70;;
14907;SDS011;7545;52.092;7.006;2022-07-23T07:54:35;1.75;;;1.45;;
14907;SDS011;7545;52.092;7.006;2022-07-23T07:57:00;4.95;;;1.80;;
14907;SDS011;7545;52.092;7.006;2022-07-23T07:59:26;3.10;;;1.70;;
14907;SDS011;7545;52.092;7.006;2022-07-23T08:01:52;3.50;;;1.55;;
14907;SDS011;7545;52.092;7.006;2022-07-23T08:04:18;2.22;;;1.52;;
14907;SDS011;7545;52.092;7.006;2022-07-23T08:06:43;4.57;;;1.95;;
14907;SDS011;7545;52.092;7.006;2022-07-23T08:09:09;2.10;;;1.55;;
14907;SDS011;7545;52.092;7.006;2022-07-23T08:11:35;2.30;;;1.23;;
14907;SDS011;7545;52.092;7.006;2022-07-23T08:14:01;1.60;;;1.10;;
14907;SDS011;7545;52.092;7.006;2022-07-23T08:16:26;2.28;;;1.35;;
14907;SDS011;7545;52.092;7.006;2022-07-23T08:18:52;3.30;;;1.48;;
14907;SDS011;7545;52.092;7.006;2022-07-23T08:21:18;2.22;;;1.60;;
14907;SDS011;7545;52.092;7.006;2022-07-23T08:23:43;2.88;;;2.08;;
14907;SDS011;7545;52.092;7.006;2022-07-23T08:26:09;1.95;;;1.25;;
14907;SDS011;7545;52.092;7.006;2022-07-23T08:28:36;2.40;;;1.48;;
14907;SDS011;7545;52.092;7.006;2022-07-23T08:31:02;1.65;;;1.50;;
14907;SDS011;7545;52.092;7.006;2022-07-23T08:33:27;3.25;;;1.60;;
14907;SDS011;7545;52.092;7.006;2022-07-23T08:35:53;2.90;;;1.50;;
14907;SDS011;7545;52.092;7.006;2022-07-23T08:38:19;4.55;;;1.60;;
14907;SDS011;7545;52.092;7.006;2022-07-23T08:40:47;2.00;;;1.27;;
14907;SDS011;7545;52.092;7.006;2022-07-23T08:43:16;3.22;;;1.10;;
14907;SDS011;7545;52.092;7.006;2022-07-23T08:45:52;2.97;;;1.63;;
14907;SDS011;7545;52.092;7.006;2022-07-23T08:48:24;3.83;;;1.40;;
14907;SDS011;7545;52.092;7.006;2022-07-23T08:50:52;16.67;;;2.22;;
14907;SDS011;7545;52.092;7.006;2022-07-23T08:53:20;2.53;;;0.95;;
14907;SDS011;7545;52.092;7.006;2022-07-23T08:55:50;3.53;;;1.58;;
14907;SDS011;7545;52.092;7.006;2022-07-23T08:58:18;1.88;;;1.00;;
14907;SDS011;7545;52.092;7.006;2022-07-23T09:00:44;7.72;;;1.90;;
14907;SDS011;7545;52.092;7.006;2022-07-23T09:03:29;5.93;;;1.20;;
14907;SDS011;7545;52.092;7.006;2022-07-23T09:06:00;22.98;;;2.92;;
14907;SDS011;7545;52.092;7.006;2022-07-23T09:08:48;5.93;;;1.25;;
14907;SDS011;7545;52.092;7.006;2022-07-23T09:11:15;6.95;;;1.42;;
14907;SDS011;7545;52.092;7.006;2022-07-23T09:16:30;2.70;;;1.30;;
14907;SDS011;7545;52.092;7.006;2022-07-23T09:19:00;1.80;;;1.33;;
14907;SDS011;7545;52.092;7.006;2022-07-23T09:24:11;3.45;;;1.20;;
14907;SDS011;7545;52.092;7.006;2022-07-23T09:32:14;1.20;;;1.05;;
14907;SDS011;7545;52.092;7.006;2022-07-23T09:34:25;2.95;;;0.98;;
14907;SDS011;7545;52.092;7.006;2022-07-23T09:36:53;2.20;;;1.35;;
14907;SDS011;7545;52.092;7.006;2022-07-23T09:39:33;7.43;;;4.00;;
14907;SDS011;7545;52.092;7.006;2022-07-23T09:42:19;24.20;;;12.18;;
14907;SDS011;7545;52.092;7.006;2022-07-23T09:44:45;4.97;;;3.33;;
14907;SDS011;7545;52.092;7.006;2022-07-23T09:47:12;2.00;;;1.40;;
14907;SDS011;7545;52.092;7.006;2022-07-23T09:49:38;4.35;;;2.90;;
14907;SDS011;7545;52.092;7.006;2022-07-23T09:52:04;5.57;;;2.97;;
14907;SDS011;7545;52.092;7.006;2022-07-23T09:57:04;1.63;;;1.30;;
14907;SDS011;7545;52.092;7.006;2022-07-23T09:59:32;4.00;;;1.48;;
14907;SDS011;7545;52.092;7.006;2022-07-23T10:02:00;3.33;;;2.17;;
14907;SDS011;7545;52.092;7.006;2022-07-23T10:04:27;2.10;;;0.98;;
14907;SDS011;7545;52.092;7.006;2022-07-23T10:06:55;1.88;;;0.90;;
14907;SDS011;7545;52.092;7.006;2022-07-23T10:09:27;1.55;;;0.93;;
14907;SDS011;7545;52.092;7.006;2022-07-23T10:11:55;1.95;;;0.80;;
14907;SDS011;7545;52.092;7.006;2022-07-23T10:14:30;2.22;;;1.00;;
14907;SDS011;7545;52.092;7.006;2022-07-23T10:16:57;3.67;;;1.30;;
14907;SDS011;7545;52.092;7.006;2022-07-23T10:19:23;1.25;;;0.82;;
14907;SDS011;7545;52.092;7.006;2022-07-23T10:21:52;3.28;;;1.02;;
14907;SDS011;7545;52.092;7.006;2022-07-23T10:29:38;4.38;;;0.73;;
14907;SDS011;7545;52.092;7.006;2022-07-23T10:35:22;2.45;;;1.00;;
14907;SDS011;7545;52.092;7.006;2022-07-23T10:38:13;1.35;;;0.70;;
14907;SDS011;7545;52.092;7.006;2022-07-23T10:43:23;2.40;;;0.90;;
14907;SDS011;7545;52.092;7.006;2022-07-23T10:45:49;1.30;;;0.75;;
14907;SDS011;7545;52.092;7.006;2022-07-23T10:48:17;1.55;;;0.90;;
14907;SDS011;7545;52.092;7.006;2022-07-23T10:59:28;2.05;;;0.75;;
14907;SDS011;7545;52.092;7.006;2022-07-23T11:01:54;2.05;;;0.80;;
14907;SDS011;7545;52.092;7.006;2022-07-23T11:04:48;2.10;;;1.00;;
14907;SDS011;7545;52.092;7.006;2022-07-23T11:07:16;2.58;;;1.05;;
14907;SDS011;7545;52.092;7.006;2022-07-23T11:09:42;1.33;;;0.90;;
14907;SDS011;7545;52.092;7.006;2022-07-23T11:17:22;3.10;;;1.25;;
14907;SDS011;7545;52.092;7.006;2022-07-23T11:25:13;1.80;;;0.90;;
14907;SDS011;7545;52.092;7.006;2022-07-23T11:27:54;1.27;;;1.17;;
14907;SDS011;7545;52.092;7.006;2022-07-23T11:35:35;0.93;;;0.88;;
14907;SDS011;7545;52.092;7.006;2022-07-23T11:38:07;1.10;;;0.90;;
14907;SDS011;7545;52.092;7.006;2022-07-23T11:40:37;2.55;;;1.55;;
14907;SDS011;7545;52.092;7.006;2022-07-23T11:43:04;3.47;;;1.02;;
14907;SDS011;7545;52.092;7.006;2022-07-23T11:45:36;1.40;;;1.00;;
14907;SDS011;7545;52.092;7.006;2022-07-23T11:48:09;3.05;;;1.40;;
14907;SDS011;7545;52.092;7.006;2022-07-23T11:50:41;1.30;;;1.00;;
14907;SDS011;7545;52.092;7.006;2022-07-23T11:53:07;1.63;;;1.20;;
14907;SDS011;7545;52.092;7.006;2022-07-23T11:55:32;4.07;;;0.90;;
14907;SDS011;7545;52.092;7.006;2022-07-23T11:57:58;3.13;;;1.45;;
14907;SDS011;7545;52.092;7.006;2022-07-23T12:00:25;4.40;;;1.02;;
14907;SDS011;7545;52.092;7.006;2022-07-23T12:02:54;2.25;;;1.42;;
14907;SDS011;7545;52.092;7.006;2022-07-23T12:05:45;2.22;;;0.98;;
14907;SDS011;7545;52.092;7.006;2022-07-23T12:08:10;1.60;;;1.02;;
14907;SDS011;7545;52.092;7.006;2022-07-23T12:10:42;2.03;;;1.33;;
14907;SDS011;7545;52.092;7.006;2022-07-23T12:13:13;2.40;;;1.10;;
14907;SDS011;7545;52.092;7.006;2022-07-23T12:15:47;1.80;;;1.13;;
14907;SDS011;7545;52.092;7.006;2022-07-23T12:18:16;1.20;;;1.00;;
14907;SDS011;7545;52.092;7.006;2022-07-23T12:20:46;1.20;;;1.10;;
14907;SDS011;7545;52.092;7.006;2022-07-23T12:23:24;1.23;;;1.08;;
14907;SDS011;7545;52.092;7.006;2022-07-23T12:25:51;1.65;;;1.08;;
14907;SDS011;7545;52.092;7.006;2022-07-23T12:33:32;1.33;;;1.23;;
14907;SDS011;7545;52.092;7.006;2022-07-23T12:36:00;3.55;;;1.27;;
14907;SDS011;7545;52.092;7.006;2022-07-23T12:38:36;2.80;;;1.20;;
14907;SDS011;7545;52.092;7.006;2022-07-23T12:41:03;1.45;;;0.98;;
14907;SDS011;7545;52.092;7.006;2022-07-23T12:43:34;2.55;;;1.05;;
14907;SDS011;7545;52.092;7.006;2022-07-23T12:51:00;2.13;;;1.20;;
14907;SDS011;7545;52.092;7.006;2022-07-23T12:56:07;1.20;;;1.10;;
14907;SDS011;7545;52.092;7.006;2022-07-23T13:01:09;2.40;;;1.20;;
14907;SDS011;7545;52.092;7.006;2022-07-23T13:06:38;2.10;;;1.10;;
14907;SDS011;7545;52.092;7.006;2022-07-23T13:09:16;2.45;;;1.20;;
14907;SDS011;7545;52.092;7.006;2022-07-23T13:11:46;1.52;;;1.17;;
14907;SDS011;7545;52.092;7.006;2022-07-23T13:14:13;2.83;;;1.38;;
14907;SDS011;7545;52.092;7.006;2022-07-23T13:16:40;2.30;;;1.50;;
14907;SDS011;7545;52.092;7.006;2022-07-23T13:19:08;4.88;;;1.52;;
14907;SDS011;7545;52.092;7.006;2022-07-23T13:21:34;2.33;;;1.38;;
14907;SDS011;7545;52.092;7.006;2022-07-23T13:24:00;2.38;;;1.10;;
14907;SDS011;7545;52.092;7.006;2022-07-23T13:26:26;1.67;;;1.33;;
14907;SDS011;7545;52.092;7.006;2022-07-23T13:28:52;2.70;;;1.30;;
14907;SDS011;7545;52.092;7.006;2022-07-23T13:31:18;1.17;;;1.02;;
14907;SDS011;7545;52.092;7.006;2022-07-23T13:33:44;1.90;;;1.20;;
14907;SDS011;7545;52.092;7.006;2022-07-23T13:36:09;2.20;;;1.10;;
14907;SDS011;7545;52.092;7.006;2022-07-23T13:38:35;3.22;;;1.30;;
14907;SDS011;7545;52.092;7.006;2022-07-23T13:41:01;3.88;;;1.80;;
14907;SDS011;7545;52.092;7.006;2022-07-23T13:43:28;2.53;;;1.70;;
14907;SDS011;7545;52.092;7.006;2022-07-23T13:45:54;5.47;;;2.88;;
14907;SDS011;7545;52.092;7.006;2022-07-23T13:48:21;3.00;;;1.75;;
14907;SDS011;7545;52.092;7.006;2022-07-23T13:50:47;2.20;;;1.35;;
14907;SDS011;7545;52.092;7.006;2022-07-23T13:53:15;2.97;;;1.58;;
14907;SDS011;7545;52.092;7.006;2022-07-23T13:55:43;2.00;;;1.38;;
14907;SDS011;7545;52.092;7.006;2022-07-23T13:58:09;2.50;;;1.45;;
14907;SDS011;7545;52.092;7.006;2022-07-23T14:00:36;3.00;;;1.50;;
14907;SDS011;7545;52.092;7.006;2022-07-23T14:03:03;3.83;;;1.95;;
14907;SDS011;7545;52.092;7.006;2022-07-23T14:05:29;4.35;;;1.63;;
14907;SDS011;7545;52.092;7.006;2022-07-23T14:07:55;2.13;;;1.50;;
14907;SDS011;7545;52.092;7.006;2022-07-23T14:10:21;1.45;;;1.25;;
14907;SDS011;7545;52.092;7.006;2022-07-23T14:12:48;2.13;;;1.50;;
14907;SDS011;7545;52.092;7.006;2022-07-23T14:15:16;2.28;;;1.50;;
14907;SDS011;7545;52.092;7.006;2022-07-23T14:17:42;1.98;;;1.70;;
14907;SDS011;7545;52.092;7.006;2022-07-23T14:20:10;2.92;;;1.30;;
14907;SDS011;7545;52.092;7.006;2022-07-23T14:22:37;6.72;;;1.52;;
14907;SDS011;7545;52.092;7.006;2022-07-23T14:25:03;2.15;;;1.20;;
14907;SDS011;7545;52.092;7.006;2022-07-23T14:27:29;1.20;;;1.10;;
14907;SDS011;7545;52.092;7.006;2022-07-23T14:29:55;1.95;;;1.40;;
14907;SDS011;7545;52.092;7.006;2022-07-23T14:32:21;1.92;;;1.23;;
14907;SDS011;7545;52.092;7.006;2022-07-23T14:34:47;1.40;;;1.10;;
14907;SDS011;7545;52.092;7.006;2022-07-23T14:37:13;2.20;;;1.42;;
14907;SDS011;7545;52.092;7.006;2022-07-23T14:39:39;1.70;;;1.27;;
14907;SDS011;7545;52.092;7.006;2022-07-23T14:42:06;2.35;;;1.58;;
14907;SDS011;7545;52.092;7.006;2022-07-23T14:44:32;1.30;;;1.20;;
14907;SDS011;7545;52.092;7.006;2022-07-23T14:46:59;3.42;;;1.10;;
14907;SDS011;7545;52.092;7.006;2022-07-23T14:49:26;1.75;;;1.40;;
14907;SDS011;7545;52.092;7.006;2022-07-23T14:51:52;1.63;;;1.15;;
14907;SDS011;7545;52.092;7.006;2022-07-23T14:54:18;1.60;;;1.50;;
14907;SDS011;7545;52.092;7.006;2022-07-23T14:56:44;2.85;;;1.42;;
14907;SDS011;7545;52.092;7.006;2022-07-23T14:59:11;2.28;;;1.30;;
14907;SDS011;7545;52.092;7.006;2022-07-23T15:01:37;2.63;;;1.33;;
14907;SDS011;7545;52.092;7.006;2022-07-23T15:04:04;1.73;;;1.55;;
14907;SDS011;7545;52.092;7.006;2022-07-23T15:06:31;1.70;;;1.23;;
14907;SDS011;7545;52.092;7.006;2022-07-23T15:08:57;1.77;;;1.10;;
14907;SDS011;7545;52.092;7.006;2022-07-23T15:11:22;2.17;;;1.05;;
14907;SDS011;7545;52.092;7.006;2022-07-23T15:13:48;1.95;;;1.77;;
14907;SDS011;7545;52.092;7.006;2022-07-23T15:16:14;2.35;;;1.23;;
14907;SDS011;7545;52.092;7.006;2022-07-23T15:18:40;3.80;;;1.10;;
14907;SDS011;7545;52.092;7.006;2022-07-23T15:21:05;1.75;;;1.17;;
14907;SDS011;7545;52.092;7.006;2022-07-23T15:23:31;1.38;;;1.20;;
14907;SDS011;7545;52.092;7.006;2022-07-23T15:25:57;2.55;;;1.45;;
14907;SDS011;7545;52.092;7.006;2022-07-23T15:28:23;1.20;;;1.10;;
14907;SDS011;7545;52.092;7.006;2022-07-23T15:30:50;2.45;;;1.40;;
14907;SDS011;7545;52.092;7.006;2022-07-23T15:33:17;1.77;;;1.50;;
14907;SDS011;7545;52.092;7.006;2022-07-23T15:35:42;2.90;;;1.67;;
14907;SDS011;7545;52.092;7.006;2022-07-23T15:38:08;4.13;;;1.52;;
14907;SDS011;7545;52.092;7.006;2022-07-23T15:40:34;1.50;;;1.40;;
14907;SDS011;7545;52.092;7.006;2022-07-23T15:43:00;2.75;;;1.40;;
14907;SDS011;7545;52.092;7.006;2022-07-23T15:45:26;2.00;;;1.58;;
14907;SDS011;7545;52.092;7.006;2022-07-23T15:47:51;2.00;;;1.45;;
14907;SDS011;7545;52.092;7.006;2022-07-23T15:50:17;1.42;;;1.25;;
14907;SDS011;7545;52.092;7.006;2022-07-23T15:52:43;1.73;;;1.60;;
14907;SDS011;7545;52.092;7.006;2022-07-23T15:55:09;2.55;;;1.30;;
14907;SDS011;7545;52.092;7.006;2022-07-23T15:57:35;2.42;;;1.58;;
14907;SDS011;7545;52.092;7.006;2022-07-23T16:00:00;1.30;;;1.20;;
14907;SDS011;7545;52.092;7.006;2022-07-23T16:02:26;1.40;;;1.30;;
14907;SDS011;7545;52.092;7.006;2022-07-23T16:04:52;2.63;;;1.42;;
14907;SDS011;7545;52.092;7.006;2022-07-23T16:07:19;1.58;;;1.42;;